Impacts TAF Board INFO
IDs:

KMSP - Minneapolis-St Paul, MN, US

Issued at 2002 UTC 09 Dec 2016
Updated at 2116 UTC 09 Dec 2016
Potential Impact None Slight Moderate High
Time2053Z 09/22Z 09/23Z 10/00Z 10/01Z 10/02Z 10/03Z 10/04Z 10/05Z 10/06Z 10/07Z 10/08Z 10/09Z 10/10Z
Type OBS PRVL PRVL PRVL PRVL PRVL PRVL PRVL PRVL PRVL PRVL PRVL PRVL PRVL
VIS 10 >6 >6 >6 >6 >6 >6 >6 >6 >6 >6 >6 >6 >6
CIG 25 22 22 130 130 130 130 130 130 130 130 130 130 130
Cover BKN BKN BKN BKN BKN BKN BKN BKN BKN BKN BKN BKN BKN BKN
FltCat MVFR MVFR MVFR VFR VFR VFR VFR VFR VFR VFR VFR VFR VFR VFR
WX -- -- -- -- -- -- -- -- -- -- -- -- -- --
WDir 280 270 270 270 270 270 270 270 270 270 270 270 270 270
WSpd 7 7 7 6 6 6 6 6 6 6 6 6 6 6
WGst -- -- -- -- -- -- -- -- -- -- -- -- -- --

Raw TAF
KMSP 092002Z 0920/1024 27007KT P6SM BKN022
  FM100000 27006KT P6SM SCT020 BKN130
  FM101700 VRB03KT P6SM SCT030 OVC090
  FM102200 09005KT 6SM -SN SCT015 OVC030


Raw METAR
KMSP 092053Z 28007KT 10SM BKN025 M08/M14 A3050 RMK AO2 SLP346 T10781139 55015
KMSP 091953Z 27008KT 10SM BKN022 M07/M14 A3050 RMK AO2 SLP344 T10721139
KMSP 091853Z 25008KT 10SM BKN022 M08/M14 A3052 RMK AO2 SLP352 T10831139

METAR Board
Radar Display
Forecast Discussion